Time;durP1;ratioP1;P1;durP2;ratioP2;P2;SDS_P1;SDS_P2;PMS_P1;PMS_P2;Temp;Humidity;BMP_temperature;BMP_pressure;BME280_temperature;BME280_humidity;BME280_pressure;Samples;Min_cycle;Max_cycle;Signal;HPM_P1;HPM_P2
2023/10/14 00:01:26;;;;;;;;;;;18.20;99.10;;;;;;5108574;27;20434;-71
2023/10/14 00:03:51;;;;;;;;;;;18.20;99.10;;;;;;5108606;27;19924;-71
2023/10/14 00:06:17;;;;;;;;;;;18.20;99.20;;;;;;5109951;28;20448;-71
2023/10/14 00:08:59;;;;;;;;;;;18.20;99.20;;;;;;5110440;28;20316;-71
2023/10/14 00:11:27;;;;;;;;;;;18.20;99.20;;;;;;5102398;28;19967;-71
2023/10/14 00:13:53;;;;;;;;;;;18.20;99.30;;;;;;5110366;28;19919;-71
2023/10/14 00:18:55;;;;;;;;;;;18.20;99.40;;;;;;5110611;28;20003;-72
2023/10/14 00:21:21;;;;;;;;;;;18.20;99.50;;;;;;5131089;27;19918;-72
2023/10/14 00:23:50;;;;;;;;;;;18.20;99.50;;;;;;5123297;27;19990;-72
2023/10/14 00:26:16;;;;;;;;;;;18.20;99.60;;;;;;5107581;28;19912;-71
2023/10/14 00:28:45;;;;;;;;;;;18.10;99.70;;;;;;5126169;27;20415;-71
2023/10/14 00:31:15;;;;;;;;;;;18.10;99.60;;;;;;5110766;27;19916;-71
2023/10/14 00:33:41;;;;;;;;;;;18.10;99.60;;;;;;5106391;28;19977;-71
2023/10/14 00:36:11;;;;;;;;;;;18.10;99.90;;;;;;5108748;28;19912;-72
2023/10/14 00:38:43;;;;;;;;;;;18.10;99.70;;;;;;5119352;27;19911;-71
2023/10/14 00:41:09;;;;;;;;;;;18.10;99.80;;;;;;5119356;27;19921;-71
2023/10/14 00:43:35;;;;;;;;;;;18.10;99.70;;;;;;5110603;27;19907;-71
2023/10/14 00:46:06;;;;;;;;;;;18.10;99.90;;;;;;5109748;28;20441;-71
2023/10/14 00:48:34;;;;;;;;;;;18.10;99.90;;;;;;5110321;28;19976;-71
2023/10/14 00:51:01;;;;;;;;;;;18.00;99.90;;;;;;5119289;27;20047;-71
2023/10/14 00:53:30;;;;;;;;;;;18.00;99.90;;;;;;5126971;27;19918;-71
2023/10/14 00:55:56;;;;;;;;;;;18.00;99.90;;;;;;5118650;27;19934;-71
2023/10/14 00:58:28;;;;;;;;;;;18.00;99.90;;;;;;5109705;28;19938;-72
2023/10/14 01:01:00;;;;;;;;;;;18.00;99.90;;;;;;5125578;27;20314;-72
2023/10/14 01:03:31;;;;;;;;;;;18.00;99.90;;;;;;5119705;27;19907;-71
2023/10/14 01:05:57;;;;;;;;;;;17.90;99.90;;;;;;5119251;27;19911;-71
2023/10/14 01:08:24;;;;;;;;;;;17.90;99.90;;;;;;5121972;27;19911;-71
2023/10/14 01:10:50;;;;;;;;;;;17.90;99.90;;;;;;5123116;27;19911;-71
2023/10/14 01:13:27;;;;;;;;;;;17.90;99.90;;;;;;5130013;27;19917;-71
2023/10/14 01:16:02;;;;;;;;;;;17.90;99.90;;;;;;5122010;27;20015;-71
2023/10/14 01:18:28;;;;;;;;;;;17.90;99.90;;;;;;5109634;27;20395;-71
2023/10/14 01:20:57;;;;;;;;;;;17.90;99.90;;;;;;5118541;27;20010;-71
2023/10/14 01:23:24;;;;;;;;;;;17.90;99.90;;;;;;5105658;27;19915;-71
2023/10/14 01:25:53;;;;;;;;;;;17.80;99.90;;;;;;5112249;27;19999;-71
2023/10/14 01:28:23;;;;;;;;;;;17.80;99.90;;;;;;5117475;27;19920;-72
2023/10/14 01:30:51;;;;;;;;;;;17.80;99.90;;;;;;5118919;27;19912;-71
2023/10/14 01:33:20;;;;;;;;;;;17.80;99.90;;;;;;5108897;28;19918;-71
2023/10/14 01:35:51;;;;;;;;;;;17.80;99.90;;;;;;5109226;28;19911;-71
2023/10/14 01:38:17;;;;;;;;;;;17.80;99.90;;;;;;5112698;27;19918;-71
2023/10/14 01:41:04;;;;;;;;;;;17.80;99.90;;;;;;5115207;27;19908;-71
2023/10/14 01:43:30;;;;;;;;;;;17.70;99.90;;;;;;5109187;28;19912;-71
2023/10/14 01:48:22;;;;;;;;;;;17.60;99.90;;;;;;5101471;28;20007;-71
2023/10/14 01:50:52;;;;;;;;;;;17.60;99.90;;;;;;5116624;27;19958;-71
2023/10/14 01:53:18;;;;;;;;;;;17.60;99.90;;;;;;5118077;27;20619;-71
2023/10/14 01:55:45;;;;;;;;;;;17.60;99.90;;;;;;5109622;28;20099;-71
2023/10/14 01:58:16;;;;;;;;;;;17.60;99.90;;;;;;5109256;28;20003;-71
2023/10/14 02:00:46;;;;;;;;;;;17.50;99.90;;;;;;5118179;27;19908;-71
2023/10/14 02:03:11;;;;;;;;;;;17.50;99.90;;;;;;5109324;28;19943;-71
2023/10/14 02:05:40;;;;;;;;;;;17.50;99.90;;;;;;5108508;28;20000;-71
2023/10/14 02:08:16;;;;;;;;;;;17.50;99.90;;;;;;5107955;28;20037;-71
2023/10/14 02:10:46;;;;;;;;;;;17.40;99.90;;;;;;5118852;27;19916;-71
2023/10/14 02:13:15;;;;;;;;;;;17.40;99.90;;;;;;5124144;27;19911;-71
2023/10/14 02:15:46;;;;;;;;;;;17.40;99.90;;;;;;5118903;27;19912;-71
2023/10/14 02:18:16;;;;;;;;;;;17.40;99.90;;;;;;5115550;27;19912;-71
2023/10/14 02:20:56;;;;;;;;;;;17.30;99.90;;;;;;5117899;27;19923;-71
2023/10/14 02:23:43;;;;;;;;;;;17.30;99.90;;;;;;5113882;28;20372;-71
2023/10/14 02:26:39;;;;;;;;;;;17.30;99.90;;;;;;5116258;27;19908;-71
2023/10/14 02:29:07;;;;;;;;;;;17.30;99.90;;;;;;5112668;28;19915;-71
2023/10/14 02:31:35;;;;;;;;;;;17.20;99.90;;;;;;5112070;28;19926;-71
2023/10/14 02:34:06;;;;;;;;;;;17.20;99.90;;;;;;5113300;28;19918;-71
2023/10/14 02:36:35;;;;;;;;;;;17.20;99.90;;;;;;5122297;27;20000;-71
2023/10/14 02:39:03;;;;;;;;;;;17.10;99.90;;;;;;5121901;27;19908;-71
2023/10/14 02:41:32;;;;;;;;;;;17.10;99.90;;;;;;5113346;28;20004;-71
2023/10/14 02:44:18;;;;;;;;;;;17.10;99.90;;;;;;5121770;27;19998;-71
2023/10/14 02:46:45;;;;;;;;;;;17.10;99.90;;;;;;5112332;28;20023;-71
2023/10/14 02:49:14;;;;;;;;;;;17.10;99.90;;;;;;5113134;28;19911;-71
2023/10/14 02:51:43;;;;;;;;;;;17.00;99.90;;;;;;5111803;28;19919;-71
2023/10/14 02:54:15;;;;;;;;;;;17.00;99.90;;;;;;5123161;27;20394;-71
2023/10/14 02:56:57;;;;;;;;;;;17.00;99.90;;;;;;5125744;27;19915;-71
2023/10/14 02:59:36;;;;;;;;;;;17.00;99.90;;;;;;5105179;28;19912;-71
2023/10/14 03:07:27;;;;;;;;;;;16.90;99.90;;;;;;5113032;27;19915;-71
2023/10/14 03:12:49;;;;;;;;;;;16.90;99.90;;;;;;5116361;27;19922;-71
2023/10/14 03:15:19;;;;;;;;;;;16.90;99.90;;;;;;5112629;28;19908;-71
2023/10/14 03:17:53;;;;;;;;;;;16.90;99.90;;;;;;5112922;28;19916;-71
2023/10/14 03:22:57;;;;;;;;;;;16.80;99.90;;;;;;5113261;28;19911;-71
2023/10/14 03:25:23;;;;;;;;;;;16.80;99.90;;;;;;5104795;28;19961;-71
2023/10/14 03:27:49;;;;;;;;;;;16.80;99.90;;;;;;5112426;28;20331;-71
2023/10/14 03:30:15;;;;;;;;;;;16.80;99.90;;;;;;5114293;27;19961;-71
2023/10/14 03:32:42;;;;;;;;;;;16.80;99.90;;;;;;5118328;27;19911;-71
2023/10/14 03:35:12;;;;;;;;;;;16.70;99.90;;;;;;5112218;27;19915;-71
2023/10/14 03:37:44;;;;;;;;;;;16.70;99.90;;;;;;5111212;28;19951;-71
2023/10/14 03:42:54;;;;;;;;;;;16.70;99.90;;;;;;5112354;28;19950;-71
2023/10/14 03:45:22;;;;;;;;;;;16.70;99.90;;;;;;5112021;28;19947;-71
2023/10/14 03:47:52;;;;;;;;;;;16.70;99.90;;;;;;5112855;28;19994;-71
2023/10/14 03:50:23;;;;;;;;;;;16.60;99.90;;;;;;5112271;28;19916;-71
2023/10/14 03:52:51;;;;;;;;;;;16.50;99.90;;;;;;5111651;28;19953;-71
2023/10/14 03:55:19;;;;;;;;;;;16.50;99.90;;;;;;5123846;27;19911;-71
2023/10/14 03:57:45;;;;;;;;;;;16.50;99.90;;;;;;5117684;27;19911;-71
2023/10/14 04:00:12;;;;;;;;;;;16.40;99.70;;;;;;5112202;28;20447;-71
2023/10/14 04:02:40;;;;;;;;;;;16.40;99.90;;;;;;5112259;28;20002;-71
2023/10/14 04:05:10;;;;;;;;;;;16.40;99.90;;;;;;5111964;27;19935;-71
2023/10/14 04:07:40;;;;;;;;;;;16.40;99.90;;;;;;5111051;28;19950;-71
2023/10/14 04:10:09;;;;;;;;;;;16.40;99.90;;;;;;5119136;27;19914;-71
2023/10/14 04:12:39;;;;;;;;;;;16.30;99.90;;;;;;5110735;28;19911;-71
2023/10/14 04:15:06;;;;;;;;;;;16.30;99.90;;;;;;5112798;27;19911;-71
2023/10/14 04:17:32;;;;;;;;;;;16.30;99.90;;;;;;5119373;27;19947;-71
2023/10/14 04:22:38;;;;;;;;;;;16.20;99.90;;;;;;5112208;28;19973;-71
2023/10/14 04:28:25;;;;;;;;;;;16.20;99.90;;;;;;5072684;28;20405;-71
2023/10/14 04:30:51;;;;;;;;;;;16.20;99.90;;;;;;5123047;27;19919;-71
2023/10/14 04:33:34;;;;;;;;;;;16.20;99.90;;;;;;5110783;27;19915;-71
2023/10/14 04:38:37;;;;;;;;;;;16.20;99.90;;;;;;5111415;27;20037;-71
2023/10/14 04:41:03;;;;;;;;;;;16.20;99.90;;;;;;5110808;27;19907;-71
2023/10/14 04:45:54;;;;;;;;;;;16.10;99.90;;;;;;5117182;27;19933;-71
2023/10/14 04:48:28;;;;;;;;;;;16.10;99.90;;;;;;5111580;27;19929;-71
2023/10/14 04:50:57;;;;;;;;;;;16.10;99.90;;;;;;5118267;27;19922;-71
2023/10/14 04:53:26;;;;;;;;;;;16.00;99.90;;;;;;5119330;27;20376;-71
2023/10/14 04:55:52;;;;;;;;;;;16.00;99.90;;;;;;5119608;27;19912;-71
2023/10/14 04:58:24;;;;;;;;;;;16.00;99.90;;;;;;5111004;28;19976;-71
2023/10/14 05:00:52;;;;;;;;;;;16.00;99.90;;;;;;5118753;27;19962;-71
2023/10/14 05:03:19;;;;;;;;;;;16.00;99.90;;;;;;5119104;27;20010;-71
2023/10/14 05:05:58;;;;;;;;;;;15.90;99.90;;;;;;5116149;27;19911;-71
2023/10/14 05:08:24;;;;;;;;;;;15.90;99.50;;;;;;5111322;27;19911;-71
2023/10/14 05:10:51;;;;;;;;;;;15.90;99.90;;;;;;5127080;27;19919;-71
2023/10/14 05:13:19;;;;;;;;;;;15.90;99.90;;;;;;5111961;27;19918;-71
2023/10/14 05:15:52;;;;;;;;;;;15.80;99.90;;;;;;5111253;28;20287;-71
2023/10/14 05:18:27;;;;;;;;;;;15.80;99.90;;;;;;5109692;28;20379;-71
2023/10/14 05:23:19;;;;;;;;;;;15.80;99.90;;;;;;5119554;27;19916;-71
2023/10/14 05:25:48;;;;;;;;;;;15.70;99.90;;;;;;5109652;28;19907;-71
2023/10/14 05:28:15;;;;;;;;;;;15.70;99.90;;;;;;5119810;27;19919;-71
2023/10/14 05:30:41;;;;;;;;;;;15.70;99.90;;;;;;5116892;27;20014;-71
2023/10/14 05:33:06;;;;;;;;;;;15.70;99.70;;;;;;5110383;27;19995;-71
2023/10/14 05:35:39;;;;;;;;;;;15.60;99.70;;;;;;5111444;27;19915;-71
2023/10/14 05:38:11;;;;;;;;;;;15.60;99.90;;;;;;5109269;28;20380;-70
2023/10/14 05:40:40;;;;;;;;;;;15.60;99.70;;;;;;5110574;27;19912;-70
2023/10/14 05:43:06;;;;;;;;;;;15.60;99.90;;;;;;5110441;28;19964;-70
2023/10/14 05:45:34;;;;;;;;;;;15.50;99.90;;;;;;5118394;27;19911;-70
2023/10/14 05:48:00;;;;;;;;;;;15.60;99.90;;;;;;5118997;27;19919;-70
2023/10/14 05:50:26;;;;;;;;;;;15.50;99.90;;;;;;5119207;27;19915;-70
2023/10/14 05:52:51;;;;;;;;;;;15.50;99.90;;;;;;5110516;28;20394;-70
2023/10/14 05:55:19;;;;;;;;;;;15.50;99.90;;;;;;5109860;28;19916;-70
2023/10/14 05:57:47;;;;;;;;;;;15.50;99.90;;;;;;5119104;27;19912;-70
2023/10/14 06:00:22;;;;;;;;;;;15.50;99.90;;;;;;5108537;28;19978;-70
2023/10/14 06:02:49;;;;;;;;;;;15.50;99.90;;;;;;5109138;28;19907;-70
2023/10/14 06:05:16;;;;;;;;;;;15.50;99.90;;;;;;5110823;28;20412;-70
2023/10/14 06:07:46;;;;;;;;;;;15.40;99.90;;;;;;5110555;28;19920;-70
2023/10/14 06:10:22;;;;;;;;;;;15.40;99.90;;;;;;5108921;28;20375;-70
2023/10/14 06:12:48;;;;;;;;;;;15.40;99.90;;;;;;5110669;28;19907;-70
2023/10/14 06:15:17;;;;;;;;;;;15.40;99.90;;;;;;5119025;28;20325;-70
2023/10/14 06:17:44;;;;;;;;;;;15.40;99.80;;;;;;5117721;27;20057;-70
2023/10/14 06:20:13;;;;;;;;;;;15.30;99.90;;;;;;5127462;27;19954;-70
2023/10/14 06:22:40;;;;;;;;;;;15.30;99.90;;;;;;5110594;28;20372;-70
2023/10/14 06:25:06;;;;;;;;;;;15.30;99.80;;;;;;5110086;28;19912;-70
2023/10/14 06:27:32;;;;;;;;;;;15.30;99.80;;;;;;5106903;28;19919;-70
2023/10/14 06:29:57;;;;;;;;;;;15.30;99.80;;;;;;5109190;28;19915;-70
2023/10/14 06:32:23;;;;;;;;;;;15.30;99.90;;;;;;5121656;27;20554;-70
2023/10/14 06:34:57;;;;;;;;;;;15.20;99.80;;;;;;5115503;27;20484;-70
2023/10/14 06:37:26;;;;;;;;;;;15.20;99.90;;;;;;5110488;28;19914;-70
2023/10/14 06:39:52;;;;;;;;;;;15.20;99.70;;;;;;5109332;28;19912;-70
2023/10/14 06:42:22;;;;;;;;;;;15.20;99.90;;;;;;5112738;28;19914;-70
2023/10/14 06:44:48;;;;;;;;;;;15.20;99.80;;;;;;5109871;28;19912;-70
2023/10/14 06:47:13;;;;;;;;;;;15.20;99.70;;;;;;5110640;28;20375;-70
2023/10/14 06:49:41;;;;;;;;;;;15.20;99.70;;;;;;5110587;28;19908;-70
2023/10/14 06:52:07;;;;;;;;;;;15.10;99.70;;;;;;5110310;28;19915;-70
2023/10/14 06:54:36;;;;;;;;;;;15.10;99.80;;;;;;5110432;28;20289;-70
2023/10/14 06:57:07;;;;;;;;;;;15.10;99.60;;;;;;5112441;28;19912;-70
2023/10/14 06:59:33;;;;;;;;;;;15.10;99.10;;;;;;5117815;27;19911;-70
2023/10/14 07:01:59;;;;;;;;;;;15.10;99.70;;;;;;5122776;27;19908;-70
2023/10/14 07:04:25;;;;;;;;;;;15.00;99.30;;;;;;5113924;28;19914;-70
2023/10/14 07:06:51;;;;;;;;;;;15.00;99.70;;;;;;5114451;28;19912;-70
2023/10/14 07:09:17;;;;;;;;;;;15.00;99.20;;;;;;5122563;27;19912;-70
2023/10/14 07:11:44;;;;;;;;;;;15.00;99.80;;;;;;5112550;28;19911;-70
2023/10/14 07:14:10;;;;;;;;;;;15.00;99.30;;;;;;5122483;27;20352;-70
2023/10/14 07:16:35;;;;;;;;;;;15.00;99.30;;;;;;5114153;28;19915;-70
2023/10/14 07:19:01;;;;;;;;;;;15.00;99.60;;;;;;5114388;28;19911;-70
2023/10/14 07:21:29;;;;;;;;;;;15.00;99.80;;;;;;5117329;27;19923;-70
2023/10/14 07:24:05;;;;;;;;;;;15.00;99.80;;;;;;5118102;27;19997;-70
2023/10/14 07:26:36;;;;;;;;;;;15.00;99.50;;;;;;5110819;28;19911;-70
2023/10/14 07:29:02;;;;;;;;;;;15.00;99.20;;;;;;5113613;28;19995;-70
2023/10/14 07:31:30;;;;;;;;;;;15.00;99.70;;;;;;5113776;28;19911;-70
2023/10/14 07:34:02;;;;;;;;;;;15.00;99.40;;;;;;5113601;27;19912;-70
2023/10/14 07:36:28;;;;;;;;;;;15.00;99.70;;;;;;5113192;28;19949;-70
2023/10/14 07:39:01;;;;;;;;;;;14.90;99.60;;;;;;5113487;28;19916;-70
2023/10/14 07:41:26;;;;;;;;;;;14.90;99.70;;;;;;5111782;28;20380;-70
2023/10/14 07:43:52;;;;;;;;;;;14.90;99.20;;;;;;5111674;28;19914;-70
2023/10/14 07:46:17;;;;;;;;;;;14.90;99.70;;;;;;5112712;28;19908;-70
2023/10/14 07:48:43;;;;;;;;;;;14.90;99.60;;;;;;5116764;27;19907;-70
2023/10/14 07:51:09;;;;;;;;;;;14.90;99.60;;;;;;5114438;27;19919;-70
2023/10/14 07:53:35;;;;;;;;;;;14.90;98.80;;;;;;5115832;27;19996;-70
2023/10/14 07:56:01;;;;;;;;;;;14.80;99.50;;;;;;5132462;27;19943;-70
2023/10/14 07:58:27;;;;;;;;;;;14.90;99.30;;;;;;5119037;27;20016;-70
2023/10/14 08:00:54;;;;;;;;;;;14.90;99.60;;;;;;5111686;28;19912;-70
2023/10/14 08:03:21;;;;;;;;;;;14.90;99.50;;;;;;5119838;27;19946;-70
2023/10/14 08:05:52;;;;;;;;;;;14.90;99.20;;;;;;5111860;28;20006;-70
2023/10/14 08:08:19;;;;;;;;;;;14.90;99.40;;;;;;5119345;27;19915;-70
2023/10/14 08:10:47;;;;;;;;;;;14.90;99.40;;;;;;5112026;28;20216;-70
2023/10/14 08:13:13;;;;;;;;;;;14.90;99.40;;;;;;5120346;27;20357;-70
2023/10/14 08:15:38;;;;;;;;;;;14.80;99.10;;;;;;5111953;28;19911;-70
2023/10/14 08:18:04;;;;;;;;;;;14.80;99.30;;;;;;5120588;27;19968;-70
2023/10/14 08:20:31;;;;;;;;;;;14.90;99.30;;;;;;5120638;27;19912;-70
2023/10/14 08:22:57;;;;;;;;;;;14.80;98.50;;;;;;5110888;28;19965;-70
2023/10/14 08:25:25;;;;;;;;;;;14.90;99.20;;;;;;5110123;28;19912;-70
2023/10/14 08:27:51;;;;;;;;;;;14.80;99.00;;;;;;5118867;27;19942;-70
2023/10/14 08:30:17;;;;;;;;;;;14.90;99.30;;;;;;5113212;27;20344;-70
2023/10/14 08:32:43;;;;;;;;;;;14.90;98.70;;;;;;5111878;28;20002;-70
2023/10/14 08:35:16;;;;;;;;;;;14.90;98.90;;;;;;5112181;27;19996;-70
2023/10/14 08:37:47;;;;;;;;;;;14.80;98.80;;;;;;5111889;28;19973;-70
2023/10/14 08:40:25;;;;;;;;;;;14.80;98.60;;;;;;5120304;27;20507;-70
2023/10/14 08:42:55;;;;;;;;;;;14.80;98.80;;;;;;5120288;27;19908;-70
2023/10/14 08:45:22;;;;;;;;;;;14.90;99.00;;;;;;5114205;27;19933;-70
2023/10/14 08:47:51;;;;;;;;;;;14.90;98.90;;;;;;5115863;27;19908;-70
2023/10/14 08:50:21;;;;;;;;;;;14.90;98.70;;;;;;5118042;27;19912;-70
2023/10/14 08:52:49;;;;;;;;;;;14.90;98.50;;;;;;5118046;27;19915;-70
2023/10/14 08:55:16;;;;;;;;;;;14.80;98.70;;;;;;5112823;27;19923;-70
2023/10/14 08:57:42;;;;;;;;;;;14.90;98.00;;;;;;5109792;28;19915;-70
2023/10/14 09:00:12;;;;;;;;;;;14.90;98.40;;;;;;5126872;27;19911;-70
2023/10/14 09:02:41;;;;;;;;;;;14.90;98.70;;;;;;5108529;27;19907;-70
2023/10/14 09:05:11;;;;;;;;;;;14.90;98.10;;;;;;5113532;27;20613;-70
2023/10/14 09:07:38;;;;;;;;;;;14.90;98.60;;;;;;5111138;27;19912;-70
2023/10/14 09:10:04;;;;;;;;;;;14.80;98.20;;;;;;5110981;27;19907;-70
2023/10/14 09:12:30;;;;;;;;;;;14.80;98.50;;;;;;5101976;28;19911;-70
2023/10/14 09:14:55;;;;;;;;;;;14.80;98.50;;;;;;5116889;27;20326;-70
2023/10/14 09:17:21;;;;;;;;;;;14.80;98.20;;;;;;5120177;27;19915;-70
2023/10/14 09:19:48;;;;;;;;;;;14.80;98.30;;;;;;5110845;28;20258;-70
2023/10/14 09:22:20;;;;;;;;;;;14.80;98.10;;;;;;5118818;27;19908;-70
2023/10/14 09:24:47;;;;;;;;;;;14.80;98.00;;;;;;5109231;28;20433;-70
2023/10/14 09:27:13;;;;;;;;;;;14.80;98.30;;;;;;5109458;27;19968;-70
2023/10/14 09:29:38;;;;;;;;;;;14.90;97.90;;;;;;5114943;27;20002;-70
2023/10/14 09:32:05;;;;;;;;;;;14.90;97.90;;;;;;5111171;27;20361;-70
2023/10/14 09:34:30;;;;;;;;;;;14.80;97.70;;;;;;5110280;27;19914;-70
2023/10/14 09:36:56;;;;;;;;;;;14.90;97.80;;;;;;5110440;27;19912;-70
2023/10/14 09:39:25;;;;;;;;;;;14.80;98.10;;;;;;5110195;28;19912;-70
2023/10/14 09:41:53;;;;;;;;;;;14.90;98.10;;;;;;5110532;28;19989;-70
2023/10/14 09:44:20;;;;;;;;;;;14.90;97.70;;;;;;5109779;28;19915;-70
2023/10/14 09:46:46;;;;;;;;;;;14.80;98.20;;;;;;5109710;28;20015;-70
2023/10/14 09:49:13;;;;;;;;;;;14.90;97.90;;;;;;5108839;28;20010;-70
2023/10/14 09:51:39;;;;;;;;;;;14.80;97.60;;;;;;5109108;28;19915;-70
2023/10/14 09:54:06;;;;;;;;;;;14.80;97.50;;;;;;5108776;28;19907;-70
2023/10/14 09:56:32;;;;;;;;;;;14.90;97.70;;;;;;5109135;28;19912;-70
2023/10/14 09:59:01;;;;;;;;;;;14.90;98.00;;;;;;5110109;28;20446;-70
2023/10/14 10:01:26;;;;;;;;;;;14.90;97.60;;;;;;5113763;27;19907;-70
2023/10/14 10:03:55;;;;;;;;;;;14.90;97.60;;;;;;5115816;27;19934;-70
2023/10/14 10:06:47;;;;;;;;;;;14.90;97.50;;;;;;5118626;27;20360;-70
2023/10/14 10:09:17;;;;;;;;;;;15.00;97.10;;;;;;5111294;28;19939;-70
2023/10/14 10:11:43;;;;;;;;;;;15.00;96.60;;;;;;5115724;27;19912;-70
2023/10/14 10:14:12;;;;;;;;;;;15.00;97.50;;;;;;5109167;28;19908;-70
2023/10/14 10:16:40;;;;;;;;;;;15.10;97.50;;;;;;5110147;28;20000;-70
2023/10/14 10:19:08;;;;;;;;;;;15.10;96.50;;;;;;5110306;28;19908;-69
2023/10/14 10:21:38;;;;;;;;;;;15.10;97.20;;;;;;5110212;28;19957;-69
2023/10/14 10:24:23;;;;;;;;;;;15.20;96.60;;;;;;5109664;28;19973;-71
2023/10/14 10:27:04;;;;;;;;;;;15.10;97.20;;;;;;5107635;28;19914;-70
2023/10/14 10:29:33;;;;;;;;;;;15.20;97.30;;;;;;5109862;28;19964;-70
2023/10/14 10:32:06;;;;;;;;;;;15.20;97.20;;;;;;5112818;28;19928;-70
2023/10/14 10:34:33;;;;;;;;;;;15.20;97.00;;;;;;5113242;28;19947;-70
2023/10/14 10:37:04;;;;;;;;;;;15.20;97.20;;;;;;5113020;28;19980;-70
2023/10/14 10:39:30;;;;;;;;;;;15.30;96.50;;;;;;5122483;27;19912;-70
2023/10/14 10:41:55;;;;;;;;;;;15.40;96.80;;;;;;5114290;28;19918;-70
2023/10/14 10:44:24;;;;;;;;;;;15.50;96.40;;;;;;5118605;27;19915;-70
2023/10/14 10:46:52;;;;;;;;;;;15.50;96.80;;;;;;5114007;28;19974;-70
2023/10/14 10:49:37;;;;;;;;;;;15.50;96.40;;;;;;5113928;28;19951;-70
2023/10/14 10:52:15;;;;;;;;;;;15.60;96.80;;;;;;5113941;28;19916;-70
2023/10/14 10:54:42;;;;;;;;;;;15.60;96.70;;;;;;5125234;27;20478;-70
2023/10/14 10:57:07;;;;;;;;;;;15.50;96.30;;;;;;5116028;27;19908;-71
2023/10/14 10:59:36;;;;;;;;;;;15.60;96.60;;;;;;5113086;28;19915;-71
2023/10/14 11:02:02;;;;;;;;;;;15.60;96.20;;;;;;5112431;28;20007;-71
2023/10/14 11:04:30;;;;;;;;;;;15.60;96.30;;;;;;5113385;27;19964;-70
2023/10/14 11:06:56;;;;;;;;;;;15.60;96.30;;;;;;5122382;27;20339;-70
2023/10/14 11:09:21;;;;;;;;;;;15.60;96.40;;;;;;5114466;27;19911;-70
2023/10/14 11:11:48;;;;;;;;;;;15.60;96.40;;;;;;5123071;27;19912;-70
2023/10/14 11:14:15;;;;;;;;;;;15.60;96.50;;;;;;5116551;27;19912;-70
2023/10/14 11:16:44;;;;;;;;;;;15.60;96.40;;;;;;5110602;27;19954;-70
2023/10/14 11:19:10;;;;;;;;;;;15.50;96.30;;;;;;5116721;27;19919;-70
2023/10/14 11:21:37;;;;;;;;;;;15.50;95.80;;;;;;5113037;27;19911;-70
2023/10/14 11:24:04;;;;;;;;;;;15.50;96.50;;;;;;5112101;28;19912;-71
2023/10/14 11:26:29;;;;;;;;;;;15.60;96.30;;;;;;5115854;27;19995;-70
2023/10/14 11:28:55;;;;;;;;;;;15.60;96.30;;;;;;5112620;28;20357;-70
2023/10/14 11:31:21;;;;;;;;;;;15.60;96.40;;;;;;5112157;27;19911;-70
2023/10/14 11:33:49;;;;;;;;;;;15.60;96.00;;;;;;5113330;27;20055;-70
2023/10/14 11:36:17;;;;;;;;;;;15.60;96.20;;;;;;5113292;27;20393;-70
2023/10/14 11:38:43;;;;;;;;;;;15.60;96.00;;;;;;5127533;27;20199;-70
2023/10/14 11:41:10;;;;;;;;;;;15.60;95.40;;;;;;5111117;28;19915;-70
2023/10/14 11:43:35;;;;;;;;;;;15.70;96.30;;;;;;5106714;28;20003;-70
2023/10/14 11:46:01;;;;;;;;;;;15.70;96.20;;;;;;5116111;27;20003;-70
2023/10/14 11:48:27;;;;;;;;;;;15.70;95.60;;;;;;5112254;28;19961;-70
2023/10/14 11:51:03;;;;;;;;;;;15.80;96.00;;;;;;5120841;27;19916;-70
2023/10/14 11:53:30;;;;;;;;;;;15.90;96.00;;;;;;5112424;28;20052;-70
2023/10/14 11:55:58;;;;;;;;;;;15.80;95.90;;;;;;5112075;28;19982;-70
2023/10/14 11:58:25;;;;;;;;;;;15.90;95.80;;;;;;5112394;28;19912;-70
2023/10/14 12:00:51;;;;;;;;;;;15.90;95.70;;;;;;5119237;27;19908;-70
2023/10/14 12:03:17;;;;;;;;;;;15.90;95.70;;;;;;5122457;27;20379;-70
2023/10/14 12:05:42;;;;;;;;;;;15.90;95.80;;;;;;5111951;28;20012;-70
2023/10/14 12:08:08;;;;;;;;;;;16.00;95.80;;;;;;5102727;28;20007;-71
2023/10/14 12:10:34;;;;;;;;;;;16.00;95.70;;;;;;5112293;28;19908;-71
2023/10/14 12:12:59;;;;;;;;;;;16.10;94.10;;;;;;5110594;28;19914;-70
2023/10/14 12:15:25;;;;;;;;;;;16.20;95.40;;;;;;5120680;27;19951;-70
2023/10/14 12:17:50;;;;;;;;;;;16.20;95.40;;;;;;5120713;27;19945;-70
2023/10/14 12:20:16;;;;;;;;;;;16.10;95.30;;;;;;5112940;27;20014;-70
2023/10/14 12:22:41;;;;;;;;;;;16.10;95.50;;;;;;5118492;27;20003;-70
2023/10/14 12:25:07;;;;;;;;;;;16.10;95.30;;;;;;5109862;28;20271;-70
2023/10/14 12:27:33;;;;;;;;;;;16.10;95.50;;;;;;5106781;28;19920;-70
2023/10/14 12:30:00;;;;;;;;;;;16.00;95.60;;;;;;5111283;28;19907;-70
2023/10/14 12:32:32;;;;;;;;;;;16.10;95.60;;;;;;5110910;28;21146;-70
2023/10/14 12:34:59;;;;;;;;;;;16.00;95.40;;;;;;5108552;28;19911;-70
2023/10/14 12:37:26;;;;;;;;;;;16.00;95.50;;;;;;5110370;28;20026;-70
2023/10/14 12:42:45;;;;;;;;;;;16.00;95.50;;;;;;5090942;28;19915;-70
2023/10/14 12:45:14;;;;;;;;;;;16.00;94.90;;;;;;5107962;28;19908;-71
2023/10/14 12:47:48;;;;;;;;;;;15.90;95.30;;;;;;5122611;27;19908;-71
2023/10/14 12:50:15;;;;;;;;;;;16.00;94.30;;;;;;5113436;27;19915;-70
2023/10/14 12:52:45;;;;;;;;;;;16.00;94.90;;;;;;5109989;28;19923;-70
2023/10/14 12:55:17;;;;;;;;;;;16.10;95.10;;;;;;5109577;28;19972;-71
2023/10/14 12:57:43;;;;;;;;;;;16.10;94.60;;;;;;5110827;28;19912;-70
2023/10/14 13:00:17;;;;;;;;;;;16.20;94.60;;;;;;5118478;27;19938;-70
2023/10/14 13:02:43;;;;;;;;;;;16.20;94.60;;;;;;5116915;27;20019;-70
2023/10/14 13:05:13;;;;;;;;;;;16.20;94.00;;;;;;5118619;27;20053;-71
2023/10/14 13:07:39;;;;;;;;;;;16.20;94.00;;;;;;5110163;28;19915;-71
2023/10/14 13:10:08;;;;;;;;;;;16.30;94.30;;;;;;5102243;28;19911;-71
2023/10/14 13:12:33;;;;;;;;;;;16.30;94.40;;;;;;5102501;28;20511;-70
2023/10/14 13:15:04;;;;;;;;;;;16.40;94.30;;;;;;5120006;27;19968;-70
2023/10/14 13:17:35;;;;;;;;;;;16.40;93.60;;;;;;5112476;27;20379;-70
2023/10/14 13:20:01;;;;;;;;;;;16.40;93.50;;;;;;5115789;27;19915;-70
2023/10/14 13:22:26;;;;;;;;;;;16.40;94.00;;;;;;5110853;27;19915;-70
2023/10/14 13:24:52;;;;;;;;;;;16.40;94.40;;;;;;5110373;28;20350;-70
2023/10/14 13:27:17;;;;;;;;;;;16.40;93.30;;;;;;5109679;27;19915;-70
2023/10/14 13:29:43;;;;;;;;;;;16.40;92.30;;;;;;5109843;28;19933;-71
2023/10/14 13:32:14;;;;;;;;;;;16.50;94.60;;;;;;5109838;28;20397;-71
2023/10/14 13:34:39;;;;;;;;;;;16.50;94.00;;;;;;5108144;27;19976;-71
2023/10/14 13:37:08;;;;;;;;;;;16.50;94.30;;;;;;5111475;27;20200;-71
2023/10/14 13:39:36;;;;;;;;;;;16.50;93.90;;;;;;5101910;28;19912;-71
2023/10/14 13:42:02;;;;;;;;;;;16.50;93.70;;;;;;5110300;28;20344;-70
2023/10/14 13:44:28;;;;;;;;;;;16.40;94.00;;;;;;5109985;28;19950;-70
2023/10/14 13:46:54;;;;;;;;;;;16.40;92.60;;;;;;5108981;28;19911;-72
2023/10/14 13:49:25;;;;;;;;;;;16.40;93.20;;;;;;5101302;28;19908;-71
2023/10/14 13:51:52;;;;;;;;;;;16.40;93.50;;;;;;5109354;28;19916;-71
2023/10/14 13:54:21;;;;;;;;;;;16.40;93.70;;;;;;5116548;27;19961;-71
2023/10/14 13:56:47;;;;;;;;;;;16.40;92.70;;;;;;5102054;28;19955;-71
2023/10/14 13:59:12;;;;;;;;;;;16.40;93.70;;;;;;5109724;28;19958;-71
2023/10/14 14:01:39;;;;;;;;;;;16.40;93.00;;;;;;5103611;28;19912;-71
2023/10/14 14:04:07;;;;;;;;;;;16.40;93.00;;;;;;5105860;28;19922;-70
2023/10/14 14:06:33;;;;;;;;;;;16.40;92.30;;;;;;5108397;28;20358;-71
2023/10/14 14:09:02;;;;;;;;;;;16.30;93.00;;;;;;5116021;27;19950;-71
2023/10/14 14:11:29;;;;;;;;;;;16.30;91.90;;;;;;5109566;27;19930;-71
2023/10/14 14:13:58;;;;;;;;;;;16.30;92.60;;;;;;5117437;27;20361;-70
2023/10/14 14:16:23;;;;;;;;;;;16.30;92.90;;;;;;5102401;28;19930;-70
2023/10/14 14:18:49;;;;;;;;;;;16.30;92.70;;;;;;5129547;27;19990;-71
2023/10/14 14:21:17;;;;;;;;;;;16.40;93.00;;;;;;5112811;27;19911;-71
2023/10/14 14:23:43;;;;;;;;;;;16.40;93.10;;;;;;5129796;27;20394;-71
2023/10/14 14:26:13;;;;;;;;;;;16.30;91.50;;;;;;5110699;28;19915;-71
2023/10/14 14:28:39;;;;;;;;;;;16.30;92.00;;;;;;5117045;28;19920;-71
2023/10/14 14:31:05;;;;;;;;;;;16.20;92.20;;;;;;5117264;28;19915;-71
2023/10/14 14:33:30;;;;;;;;;;;16.20;92.80;;;;;;5108992;28;19914;-71
2023/10/14 14:35:56;;;;;;;;;;;16.20;92.40;;;;;;5101999;28;19915;-71
2023/10/14 14:38:23;;;;;;;;;;;16.20;92.30;;;;;;5098577;28;19912;-71
2023/10/14 14:40:48;;;;;;;;;;;16.20;92.60;;;;;;5106947;28;19912;-71
2023/10/14 14:43:14;;;;;;;;;;;16.20;93.40;;;;;;5115711;27;19911;-71
2023/10/14 14:45:40;;;;;;;;;;;16.20;93.00;;;;;;5103511;28;20037;-71
2023/10/14 14:48:05;;;;;;;;;;;16.10;92.80;;;;;;5111078;28;19911;-71
2023/10/14 14:50:34;;;;;;;;;;;16.10;92.70;;;;;;5102760;27;19912;-71
2023/10/14 14:53:01;;;;;;;;;;;16.10;93.40;;;;;;5112835;27;19961;-71
2023/10/14 14:55:26;;;;;;;;;;;16.10;92.70;;;;;;5106868;28;19911;-71
2023/10/14 14:57:56;;;;;;;;;;;16.00;93.50;;;;;;5107922;28;19918;-71